sensor_id;sensor_type;location;lat;lon;timestamp;P1;durP1;ratioP1;P2;durP2;ratioP2
75499;SDS011;64076;51.466;7.260;2023-04-10T00:02:09;16.42;;;12.90;;
75499;SDS011;64076;51.466;7.260;2023-04-10T00:04:35;14.80;;;12.75;;
75499;SDS011;64076;51.466;7.260;2023-04-10T00:07:01;14.77;;;12.37;;
75499;SDS011;64076;51.466;7.260;2023-04-10T00:09:26;13.82;;;12.27;;
75499;SDS011;64076;51.466;7.260;2023-04-10T00:11:53;13.93;;;12.17;;
75499;SDS011;64076;51.466;7.260;2023-04-10T00:14:18;14.90;;;12.75;;
75499;SDS011;64076;51.466;7.260;2023-04-10T00:16:48;16.45;;;12.43;;
75499;SDS011;64076;51.466;7.260;2023-04-10T00:19:14;16.23;;;12.77;;
75499;SDS011;64076;51.466;7.260;2023-04-10T00:21:40;15.77;;;13.05;;
75499;SDS011;64076;51.466;7.260;2023-04-10T00:24:05;16.77;;;13.38;;
75499;SDS011;64076;51.466;7.260;2023-04-10T00:26:31;15.00;;;12.23;;
75499;SDS011;64076;51.466;7.260;2023-04-10T00:28:57;15.07;;;12.70;;
75499;SDS011;64076;51.466;7.260;2023-04-10T00:31:22;15.43;;;12.70;;
75499;SDS011;64076;51.466;7.260;2023-04-10T00:33:48;16.27;;;13.80;;
75499;SDS011;64076;51.466;7.260;2023-04-10T00:36:13;16.70;;;12.60;;
75499;SDS011;64076;51.466;7.260;2023-04-10T00:38:40;15.90;;;13.52;;
75499;SDS011;64076;51.466;7.260;2023-04-10T00:41:06;16.38;;;13.27;;
75499;SDS011;64076;51.466;7.260;2023-04-10T00:43:32;16.53;;;13.50;;
75499;SDS011;64076;51.466;7.260;2023-04-10T00:45:57;15.65;;;13.65;;
75499;SDS011;64076;51.466;7.260;2023-04-10T00:48:23;15.87;;;13.50;;
75499;SDS011;64076;51.466;7.260;2023-04-10T00:50:49;17.45;;;13.80;;
75499;SDS011;64076;51.466;7.260;2023-04-10T00:53:15;16.42;;;13.65;;
75499;SDS011;64076;51.466;7.260;2023-04-10T00:55:41;18.05;;;14.48;;
75499;SDS011;64076;51.466;7.260;2023-04-10T00:58:07;16.57;;;13.23;;
75499;SDS011;64076;51.466;7.260;2023-04-10T01:00:38;17.40;;;14.40;;
75499;SDS011;64076;51.466;7.260;2023-04-10T01:03:04;16.98;;;13.90;;
75499;SDS011;64076;51.466;7.260;2023-04-10T01:05:31;16.70;;;14.07;;
75499;SDS011;64076;51.466;7.260;2023-04-10T01:11:09;18.07;;;14.40;;
75499;SDS011;64076;51.466;7.260;2023-04-10T01:13:45;19.23;;;14.75;;
75499;SDS011;64076;51.466;7.260;2023-04-10T01:16:23;18.15;;;14.68;;
75499;SDS011;64076;51.466;7.260;2023-04-10T01:18:53;17.95;;;15.15;;
75499;SDS011;64076;51.466;7.260;2023-04-10T01:21:27;18.85;;;15.45;;
75499;SDS011;64076;51.466;7.260;2023-04-10T01:24:03;18.33;;;15.57;;
75499;SDS011;64076;51.466;7.260;2023-04-10T01:26:41;17.13;;;14.23;;
75499;SDS011;64076;51.466;7.260;2023-04-10T01:29:16;18.33;;;15.07;;
75499;SDS011;64076;51.466;7.260;2023-04-10T01:31:51;19.55;;;15.13;;
75499;SDS011;64076;51.466;7.260;2023-04-10T01:34:25;19.52;;;15.82;;
75499;SDS011;64076;51.466;7.260;2023-04-10T01:37:00;20.13;;;15.83;;
75499;SDS011;64076;51.466;7.260;2023-04-10T01:39:28;18.95;;;15.20;;
75499;SDS011;64076;51.466;7.260;2023-04-10T01:41:55;19.15;;;16.20;;
75499;SDS011;64076;51.466;7.260;2023-04-10T01:44:24;19.92;;;16.35;;
75499;SDS011;64076;51.466;7.260;2023-04-10T01:46:53;20.30;;;15.95;;
75499;SDS011;64076;51.466;7.260;2023-04-10T01:49:21;19.90;;;16.47;;
75499;SDS011;64076;51.466;7.260;2023-04-10T01:51:49;20.30;;;15.45;;
75499;SDS011;64076;51.466;7.260;2023-04-10T01:54:16;20.27;;;16.85;;
75499;SDS011;64076;51.466;7.260;2023-04-10T01:56:42;20.33;;;16.65;;
75499;SDS011;64076;51.466;7.260;2023-04-10T01:59:08;20.25;;;16.85;;
75499;SDS011;64076;51.466;7.260;2023-04-10T02:01:34;19.73;;;16.13;;
75499;SDS011;64076;51.466;7.260;2023-04-10T02:04:02;19.88;;;16.35;;
75499;SDS011;64076;51.466;7.260;2023-04-10T02:06:31;18.90;;;16.27;;
75499;SDS011;64076;51.466;7.260;2023-04-10T02:11:43;19.45;;;16.13;;
75499;SDS011;64076;51.466;7.260;2023-04-10T02:14:15;21.02;;;16.75;;
75499;SDS011;64076;51.466;7.260;2023-04-10T02:16:42;20.33;;;16.63;;
75499;SDS011;64076;51.466;7.260;2023-04-10T02:19:08;20.00;;;16.93;;
75499;SDS011;64076;51.466;7.260;2023-04-10T02:21:34;22.27;;;16.90;;
75499;SDS011;64076;51.466;7.260;2023-04-10T02:24:00;19.70;;;17.40;;
75499;SDS011;64076;51.466;7.260;2023-04-10T02:26:26;19.67;;;17.10;;
75499;SDS011;64076;51.466;7.260;2023-04-10T02:28:52;20.65;;;16.85;;
75499;SDS011;64076;51.466;7.260;2023-04-10T02:31:18;22.97;;;18.53;;
75499;SDS011;64076;51.466;7.260;2023-04-10T02:33:47;20.60;;;16.55;;
75499;SDS011;64076;51.466;7.260;2023-04-10T02:36:13;20.85;;;17.63;;
75499;SDS011;64076;51.466;7.260;2023-04-10T02:38:39;20.73;;;17.40;;
75499;SDS011;64076;51.466;7.260;2023-04-10T02:41:05;21.73;;;17.37;;
75499;SDS011;64076;51.466;7.260;2023-04-10T02:43:31;20.10;;;16.65;;
75499;SDS011;64076;51.466;7.260;2023-04-10T02:45:57;21.52;;;16.88;;
75499;SDS011;64076;51.466;7.260;2023-04-10T02:48:23;20.30;;;16.70;;
75499;SDS011;64076;51.466;7.260;2023-04-10T02:50:54;20.92;;;17.38;;
75499;SDS011;64076;51.466;7.260;2023-04-10T02:53:21;21.83;;;17.47;;
75499;SDS011;64076;51.466;7.260;2023-04-10T02:55:47;21.48;;;17.60;;
75499;SDS011;64076;51.466;7.260;2023-04-10T02:58:13;21.67;;;17.98;;
75499;SDS011;64076;51.466;7.260;2023-04-10T03:00:39;20.55;;;17.60;;
75499;SDS011;64076;51.466;7.260;2023-04-10T03:03:05;22.70;;;18.10;;
75499;SDS011;64076;51.466;7.260;2023-04-10T03:05:31;21.88;;;17.23;;
75499;SDS011;64076;51.466;7.260;2023-04-10T03:07:58;21.92;;;17.48;;
75499;SDS011;64076;51.466;7.260;2023-04-10T03:10:25;20.30;;;17.48;;
75499;SDS011;64076;51.466;7.260;2023-04-10T03:12:51;21.23;;;17.63;;
75499;SDS011;64076;51.466;7.260;2023-04-10T03:15:16;20.77;;;17.30;;
75499;SDS011;64076;51.466;7.260;2023-04-10T03:17:42;21.17;;;17.38;;
75499;SDS011;64076;51.466;7.260;2023-04-10T03:20:08;22.30;;;17.52;;
75499;SDS011;64076;51.466;7.260;2023-04-10T03:22:35;21.15;;;17.08;;
75499;SDS011;64076;51.466;7.260;2023-04-10T03:25:01;20.67;;;17.00;;
75499;SDS011;64076;51.466;7.260;2023-04-10T03:27:27;20.63;;;16.85;;
75499;SDS011;64076;51.466;7.260;2023-04-10T03:29:56;19.65;;;16.17;;
75499;SDS011;64076;51.466;7.260;2023-04-10T03:32:21;21.15;;;17.10;;
75499;SDS011;64076;51.466;7.260;2023-04-10T03:34:47;20.87;;;16.67;;
75499;SDS011;64076;51.466;7.260;2023-04-10T03:37:13;21.98;;;17.73;;
75499;SDS011;64076;51.466;7.260;2023-04-10T03:39:39;21.42;;;17.30;;
75499;SDS011;64076;51.466;7.260;2023-04-10T03:42:05;21.67;;;17.33;;
75499;SDS011;64076;51.466;7.260;2023-04-10T03:44:31;20.20;;;16.53;;
75499;SDS011;64076;51.466;7.260;2023-04-10T03:46:58;21.50;;;17.15;;
75499;SDS011;64076;51.466;7.260;2023-04-10T03:49:24;20.77;;;16.85;;
75499;SDS011;64076;51.466;7.260;2023-04-10T03:51:49;19.57;;;16.40;;
75499;SDS011;64076;51.466;7.260;2023-04-10T03:54:15;20.77;;;16.15;;
75499;SDS011;64076;51.466;7.260;2023-04-10T03:56:41;20.20;;;16.83;;
75499;SDS011;64076;51.466;7.260;2023-04-10T03:59:07;21.92;;;17.60;;
75499;SDS011;64076;51.466;7.260;2023-04-10T04:01:33;21.63;;;16.93;;
75499;SDS011;64076;51.466;7.260;2023-04-10T04:03:59;22.45;;;17.38;;
75499;SDS011;64076;51.466;7.260;2023-04-10T04:08:57;20.27;;;15.75;;
75499;SDS011;64076;51.466;7.260;2023-04-10T04:11:23;19.53;;;16.37;;
75499;SDS011;64076;51.466;7.260;2023-04-10T04:13:49;19.80;;;17.23;;
75499;SDS011;64076;51.466;7.260;2023-04-10T04:16:15;20.40;;;17.30;;
75499;SDS011;64076;51.466;7.260;2023-04-10T04:18:41;22.67;;;17.98;;
75499;SDS011;64076;51.466;7.260;2023-04-10T04:21:07;22.77;;;18.00;;
75499;SDS011;64076;51.466;7.260;2023-04-10T04:23:33;20.38;;;16.90;;
75499;SDS011;64076;51.466;7.260;2023-04-10T04:25:59;20.17;;;17.05;;
75499;SDS011;64076;51.466;7.260;2023-04-10T04:28:25;21.15;;;17.05;;
75499;SDS011;64076;51.466;7.260;2023-04-10T04:30:51;19.03;;;15.93;;
75499;SDS011;64076;51.466;7.260;2023-04-10T04:33:17;22.65;;;17.67;;
75499;SDS011;64076;51.466;7.260;2023-04-10T04:35:43;20.20;;;17.02;;
75499;SDS011;64076;51.466;7.260;2023-04-10T04:38:08;20.77;;;16.80;;
75499;SDS011;64076;51.466;7.260;2023-04-10T04:40:34;20.88;;;17.02;;
75499;SDS011;64076;51.466;7.260;2023-04-10T04:43:00;19.48;;;16.55;;
75499;SDS011;64076;51.466;7.260;2023-04-10T04:45:26;20.10;;;16.70;;
75499;SDS011;64076;51.466;7.260;2023-04-10T04:47:53;19.87;;;16.53;;
75499;SDS011;64076;51.466;7.260;2023-04-10T04:50:19;21.27;;;16.77;;
75499;SDS011;64076;51.466;7.260;2023-04-10T04:52:45;20.35;;;16.80;;
75499;SDS011;64076;51.466;7.260;2023-04-10T04:55:11;19.63;;;16.42;;
75499;SDS011;64076;51.466;7.260;2023-04-10T04:57:37;19.63;;;15.63;;
75499;SDS011;64076;51.466;7.260;2023-04-10T05:00:03;19.08;;;15.57;;
75499;SDS011;64076;51.466;7.260;2023-04-10T05:02:29;19.73;;;15.77;;
75499;SDS011;64076;51.466;7.260;2023-04-10T05:04:55;20.25;;;16.45;;
75499;SDS011;64076;51.466;7.260;2023-04-10T05:07:21;19.50;;;15.67;;
75499;SDS011;64076;51.466;7.260;2023-04-10T05:09:47;19.70;;;15.88;;
75499;SDS011;64076;51.466;7.260;2023-04-10T05:12:13;16.33;;;13.88;;
75499;SDS011;64076;51.466;7.260;2023-04-10T05:14:39;15.93;;;12.88;;
75499;SDS011;64076;51.466;7.260;2023-04-10T05:17:05;14.63;;;12.32;;
75499;SDS011;64076;51.466;7.260;2023-04-10T05:19:30;13.07;;;10.67;;
75499;SDS011;64076;51.466;7.260;2023-04-10T05:21:56;13.35;;;10.82;;
75499;SDS011;64076;51.466;7.260;2023-04-10T05:24:22;12.67;;;10.03;;
75499;SDS011;64076;51.466;7.260;2023-04-10T05:26:47;11.87;;;9.80;;
75499;SDS011;64076;51.466;7.260;2023-04-10T05:29:13;11.47;;;9.50;;
75499;SDS011;64076;51.466;7.260;2023-04-10T05:31:38;10.60;;;9.10;;
75499;SDS011;64076;51.466;7.260;2023-04-10T05:34:04;10.33;;;8.73;;
75499;SDS011;64076;51.466;7.260;2023-04-10T05:36:30;9.20;;;7.95;;
75499;SDS011;64076;51.466;7.260;2023-04-10T05:38:56;9.00;;;7.85;;
75499;SDS011;64076;51.466;7.260;2023-04-10T05:41:22;9.20;;;8.07;;
75499;SDS011;64076;51.466;7.260;2023-04-10T05:43:47;8.17;;;7.33;;
75499;SDS011;64076;51.466;7.260;2023-04-10T05:46:13;8.32;;;7.43;;
75499;SDS011;64076;51.466;7.260;2023-04-10T05:48:39;8.13;;;7.07;;
75499;SDS011;64076;51.466;7.260;2023-04-10T05:51:05;8.80;;;6.82;;
75499;SDS011;64076;51.466;7.260;2023-04-10T05:53:30;8.23;;;6.63;;
75499;SDS011;64076;51.466;7.260;2023-04-10T05:55:56;7.95;;;6.57;;
75499;SDS011;64076;51.466;7.260;2023-04-10T05:58:24;8.10;;;6.53;;
75499;SDS011;64076;51.466;7.260;2023-04-10T06:00:53;6.80;;;6.10;;
75499;SDS011;64076;51.466;7.260;2023-04-10T06:03:20;6.73;;;5.83;;
75499;SDS011;64076;51.466;7.260;2023-04-10T06:05:46;7.85;;;6.35;;
75499;SDS011;64076;51.466;7.260;2023-04-10T06:08:11;6.90;;;5.77;;
75499;SDS011;64076;51.466;7.260;2023-04-10T06:10:37;6.90;;;6.00;;
75499;SDS011;64076;51.466;7.260;2023-04-10T06:13:02;6.80;;;6.10;;
75499;SDS011;64076;51.466;7.260;2023-04-10T06:15:28;6.60;;;5.73;;
75499;SDS011;64076;51.466;7.260;2023-04-10T06:17:53;6.85;;;5.70;;
75499;SDS011;64076;51.466;7.260;2023-04-10T06:20:19;7.23;;;5.70;;
75499;SDS011;64076;51.466;7.260;2023-04-10T06:22:45;6.17;;;5.27;;
75499;SDS011;64076;51.466;7.260;2023-04-10T06:25:11;6.22;;;5.18;;
75499;SDS011;64076;51.466;7.260;2023-04-10T06:27:37;5.65;;;5.00;;
75499;SDS011;64076;51.466;7.260;2023-04-10T06:30:02;5.97;;;5.07;;
75499;SDS011;64076;51.466;7.260;2023-04-10T06:32:28;5.93;;;4.97;;
75499;SDS011;64076;51.466;7.260;2023-04-10T06:34:54;6.33;;;4.80;;
75499;SDS011;64076;51.466;7.260;2023-04-10T06:37:25;5.63;;;4.72;;
75499;SDS011;64076;51.466;7.260;2023-04-10T06:39:59;5.45;;;4.75;;
75499;SDS011;64076;51.466;7.260;2023-04-10T06:42:28;5.75;;;4.80;;
75499;SDS011;64076;51.466;7.260;2023-04-10T06:44:54;5.83;;;4.43;;
75499;SDS011;64076;51.466;7.260;2023-04-10T06:47:19;5.10;;;4.30;;
75499;SDS011;64076;51.466;7.260;2023-04-10T06:49:45;4.95;;;4.30;;
75499;SDS011;64076;51.466;7.260;2023-04-10T06:52:10;5.17;;;4.27;;
75499;SDS011;64076;51.466;7.260;2023-04-10T06:54:36;4.73;;;4.13;;
75499;SDS011;64076;51.466;7.260;2023-04-10T06:57:01;5.07;;;4.10;;
75499;SDS011;64076;51.466;7.260;2023-04-10T06:59:27;4.18;;;3.70;;
75499;SDS011;64076;51.466;7.260;2023-04-10T07:01:53;4.37;;;3.97;;
75499;SDS011;64076;51.466;7.260;2023-04-10T07:04:18;4.68;;;3.75;;
75499;SDS011;64076;51.466;7.260;2023-04-10T07:06:44;4.47;;;3.77;;
75499;SDS011;64076;51.466;7.260;2023-04-10T07:09:10;4.68;;;3.63;;
75499;SDS011;64076;51.466;7.260;2023-04-10T07:11:35;3.90;;;3.50;;
75499;SDS011;64076;51.466;7.260;2023-04-10T07:14:01;4.30;;;3.53;;
75499;SDS011;64076;51.466;7.260;2023-04-10T07:16:26;4.40;;;3.43;;
75499;SDS011;64076;51.466;7.260;2023-04-10T07:18:53;3.78;;;3.30;;
75499;SDS011;64076;51.466;7.260;2023-04-10T07:21:18;3.97;;;3.20;;
75499;SDS011;64076;51.466;7.260;2023-04-10T07:23:44;3.80;;;3.37;;
75499;SDS011;64076;51.466;7.260;2023-04-10T07:26:10;3.78;;;3.10;;
75499;SDS011;64076;51.466;7.260;2023-04-10T07:28:35;3.60;;;2.97;;
75499;SDS011;64076;51.466;7.260;2023-04-10T07:31:02;4.00;;;3.15;;
75499;SDS011;64076;51.466;7.260;2023-04-10T07:33:27;3.43;;;3.00;;
75499;SDS011;64076;51.466;7.260;2023-04-10T07:35:53;3.70;;;3.03;;
75499;SDS011;64076;51.466;7.260;2023-04-10T07:38:18;3.77;;;2.90;;
75499;SDS011;64076;51.466;7.260;2023-04-10T07:40:45;3.42;;;2.97;;
75499;SDS011;64076;51.466;7.260;2023-04-10T07:43:10;3.73;;;3.17;;
75499;SDS011;64076;51.466;7.260;2023-04-10T07:45:36;3.33;;;2.60;;
75499;SDS011;64076;51.466;7.260;2023-04-10T07:48:01;3.60;;;2.80;;
75499;SDS011;64076;51.466;7.260;2023-04-10T07:50:27;3.83;;;2.70;;
75499;SDS011;64076;51.466;7.260;2023-04-10T07:52:54;3.30;;;2.67;;
75499;SDS011;64076;51.466;7.260;2023-04-10T07:55:20;3.30;;;2.70;;
75499;SDS011;64076;51.466;7.260;2023-04-10T07:57:46;3.38;;;2.50;;
75499;SDS011;64076;51.466;7.260;2023-04-10T08:00:11;3.70;;;2.90;;
75499;SDS011;64076;51.466;7.260;2023-04-10T08:02:37;3.35;;;2.70;;
75499;SDS011;64076;51.466;7.260;2023-04-10T08:05:04;2.87;;;2.27;;
75499;SDS011;64076;51.466;7.260;2023-04-10T08:07:30;3.08;;;2.42;;
75499;SDS011;64076;51.466;7.260;2023-04-10T08:09:56;3.45;;;2.78;;
75499;SDS011;64076;51.466;7.260;2023-04-10T08:12:22;3.23;;;2.57;;
75499;SDS011;64076;51.466;7.260;2023-04-10T08:14:47;3.00;;;2.50;;
75499;SDS011;64076;51.466;7.260;2023-04-10T08:17:15;3.40;;;2.53;;
75499;SDS011;64076;51.466;7.260;2023-04-10T08:19:41;3.23;;;2.60;;
75499;SDS011;64076;51.466;7.260;2023-04-10T08:22:06;3.07;;;2.33;;
75499;SDS011;64076;51.466;7.260;2023-04-10T08:24:32;3.22;;;2.65;;
75499;SDS011;64076;51.466;7.260;2023-04-10T08:26:58;2.80;;;2.30;;
75499;SDS011;64076;51.466;7.260;2023-04-10T08:29:24;2.97;;;2.53;;
75499;SDS011;64076;51.466;7.260;2023-04-10T08:31:49;2.93;;;2.30;;
75499;SDS011;64076;51.466;7.260;2023-04-10T08:34:15;3.30;;;2.37;;
75499;SDS011;64076;51.466;7.260;2023-04-10T08:36:41;2.80;;;2.30;;
75499;SDS011;64076;51.466;7.260;2023-04-10T08:39:06;3.37;;;2.47;;
75499;SDS011;64076;51.466;7.260;2023-04-10T08:41:32;3.00;;;2.40;;
75499;SDS011;64076;51.466;7.260;2023-04-10T08:43:57;3.03;;;2.30;;
75499;SDS011;64076;51.466;7.260;2023-04-10T08:46:23;3.20;;;2.50;;
75499;SDS011;64076;51.466;7.260;2023-04-10T08:51:19;2.63;;;2.07;;
75499;SDS011;64076;51.466;7.260;2023-04-10T08:53:47;2.88;;;2.42;;
75499;SDS011;64076;51.466;7.260;2023-04-10T08:56:15;2.80;;;2.35;;
75499;SDS011;64076;51.466;7.260;2023-04-10T08:58:42;2.97;;;2.20;;
75499;SDS011;64076;51.466;7.260;2023-04-10T09:01:09;3.20;;;2.53;;
75499;SDS011;64076;51.466;7.260;2023-04-10T09:03:35;3.13;;;2.33;;
75499;SDS011;64076;51.466;7.260;2023-04-10T09:06:02;2.78;;;2.25;;
75499;SDS011;64076;51.466;7.260;2023-04-10T09:08:28;2.88;;;2.25;;
75499;SDS011;64076;51.466;7.260;2023-04-10T09:10:54;2.67;;;2.00;;
75499;SDS011;64076;51.466;7.260;2023-04-10T09:13:36;2.33;;;1.85;;
75499;SDS011;64076;51.466;7.260;2023-04-10T09:16:03;2.70;;;2.20;;
75499;SDS011;64076;51.466;7.260;2023-04-10T09:18:39;2.40;;;2.00;;
75499;SDS011;64076;51.466;7.260;2023-04-10T09:21:17;2.47;;;1.95;;
75499;SDS011;64076;51.466;7.260;2023-04-10T09:23:44;2.97;;;2.28;;
75499;SDS011;64076;51.466;7.260;2023-04-10T09:29:03;2.33;;;1.80;;
75499;SDS011;64076;51.466;7.260;2023-04-10T09:31:36;2.60;;;2.03;;
75499;SDS011;64076;51.466;7.260;2023-04-10T09:36:32;2.70;;;2.03;;
75499;SDS011;64076;51.466;7.260;2023-04-10T09:38:57;2.67;;;2.10;;
75499;SDS011;64076;51.466;7.260;2023-04-10T09:41:23;2.50;;;2.10;;
75499;SDS011;64076;51.466;7.260;2023-04-10T09:43:48;2.53;;;1.97;;
75499;SDS011;64076;51.466;7.260;2023-04-10T09:46:28;2.80;;;2.00;;
75499;SDS011;64076;51.466;7.260;2023-04-10T09:48:54;2.77;;;1.93;;
75499;SDS011;64076;51.466;7.260;2023-04-10T09:51:28;2.57;;;1.90;;
75499;SDS011;64076;51.466;7.260;2023-04-10T09:53:58;2.55;;;1.92;;
75499;SDS011;64076;51.466;7.260;2023-04-10T09:56:25;2.50;;;2.00;;
75499;SDS011;64076;51.466;7.260;2023-04-10T09:58:52;2.58;;;1.95;;
75499;SDS011;64076;51.466;7.260;2023-04-10T10:01:27;2.20;;;1.77;;
75499;SDS011;64076;51.466;7.260;2023-04-10T10:03:53;2.67;;;1.97;;
75499;SDS011;64076;51.466;7.260;2023-04-10T10:06:20;2.40;;;2.00;;
75499;SDS011;64076;51.466;7.260;2023-04-10T10:08:47;2.70;;;1.70;;
75499;SDS011;64076;51.466;7.260;2023-04-10T10:11:13;2.63;;;1.98;;
75499;SDS011;64076;51.466;7.260;2023-04-10T10:16:13;2.40;;;1.77;;
75499;SDS011;64076;51.466;7.260;2023-04-10T10:18:46;2.38;;;1.75;;
75499;SDS011;64076;51.466;7.260;2023-04-10T10:21:21;2.50;;;1.90;;
75499;SDS011;64076;51.466;7.260;2023-04-10T10:23:48;2.40;;;1.80;;
75499;SDS011;64076;51.466;7.260;2023-04-10T10:26:18;2.28;;;1.90;;
75499;SDS011;64076;51.466;7.260;2023-04-10T10:28:43;2.60;;;2.07;;
75499;SDS011;64076;51.466;7.260;2023-04-10T10:31:11;2.42;;;1.65;;
75499;SDS011;64076;51.466;7.260;2023-04-10T10:33:37;2.00;;;1.60;;
75499;SDS011;64076;51.466;7.260;2023-04-10T10:36:05;2.30;;;1.75;;
75499;SDS011;64076;51.466;7.260;2023-04-10T10:38:32;2.47;;;2.00;;
75499;SDS011;64076;51.466;7.260;2023-04-10T10:41:01;2.40;;;1.88;;
75499;SDS011;64076;51.466;7.260;2023-04-10T10:43:36;2.20;;;1.80;;
75499;SDS011;64076;51.466;7.260;2023-04-10T10:47:03;2.20;;;1.70;;
75499;SDS011;64076;51.466;7.260;2023-04-10T10:49:14;2.40;;;1.70;;
75499;SDS011;64076;51.466;7.260;2023-04-10T10:51:46;2.42;;;1.83;;
75499;SDS011;64076;51.466;7.260;2023-04-10T10:54:26;2.23;;;1.70;;
75499;SDS011;64076;51.466;7.260;2023-04-10T10:56:55;2.10;;;1.70;;
75499;SDS011;64076;51.466;7.260;2023-04-10T11:02:12;2.10;;;1.60;;
75499;SDS011;64076;51.466;7.260;2023-04-10T11:04:42;2.10;;;1.60;;
75499;SDS011;64076;51.466;7.260;2023-04-10T11:07:11;2.40;;;1.77;;
75499;SDS011;64076;51.466;7.260;2023-04-10T11:09:51;2.08;;;1.80;;
75499;SDS011;64076;51.466;7.260;2023-04-10T11:12:18;2.40;;;1.70;;
75499;SDS011;64076;51.466;7.260;2023-04-10T11:14:55;2.15;;;1.65;;
75499;SDS011;64076;51.466;7.260;2023-04-10T11:20:12;2.50;;;1.80;;
75499;SDS011;64076;51.466;7.260;2023-04-10T11:25:52;2.50;;;1.70;;
75499;SDS011;64076;51.466;7.260;2023-04-10T11:28:40;2.40;;;1.85;;
75499;SDS011;64076;51.466;7.260;2023-04-10T11:31:12;2.30;;;1.75;;
75499;SDS011;64076;51.466;7.260;2023-04-10T11:33:48;2.30;;;1.75;;
75499;SDS011;64076;51.466;7.260;2023-04-10T11:36:37;2.28;;;1.73;;
75499;SDS011;64076;51.466;7.260;2023-04-10T11:39:12;2.20;;;1.70;;
75499;SDS011;64076;51.466;7.260;2023-04-10T11:41:46;2.30;;;1.70;;
75499;SDS011;64076;51.466;7.260;2023-04-10T11:44:26;2.15;;;1.50;;
75499;SDS011;64076;51.466;7.260;2023-04-10T11:46:55;2.10;;;1.50;;
75499;SDS011;64076;51.466;7.260;2023-04-10T11:49:40;2.17;;;1.40;;
75499;SDS011;64076;51.466;7.260;2023-04-10T11:52:05;2.20;;;1.53;;
75499;SDS011;64076;51.466;7.260;2023-04-10T11:54:31;2.05;;;1.55;;
75499;SDS011;64076;51.466;7.260;2023-04-10T11:57:06;2.23;;;1.60;;
75499;SDS011;64076;51.466;7.260;2023-04-10T11:59:36;2.40;;;1.80;;
75499;SDS011;64076;51.466;7.260;2023-04-10T12:02:06;2.40;;;1.80;;
75499;SDS011;64076;51.466;7.260;2023-04-10T12:04:36;2.08;;;1.60;;
75499;SDS011;64076;51.466;7.260;2023-04-10T12:07:02;2.30;;;1.73;;
75499;SDS011;64076;51.466;7.260;2023-04-10T12:09:28;2.20;;;1.80;;
75499;SDS011;64076;51.466;7.260;2023-04-10T12:14:28;2.10;;;1.53;;
75499;SDS011;64076;51.466;7.260;2023-04-10T12:16:57;2.22;;;1.50;;
75499;SDS011;64076;51.466;7.260;2023-04-10T12:19:25;2.22;;;1.63;;
75499;SDS011;64076;51.466;7.260;2023-04-10T12:21:51;2.25;;;1.65;;
75499;SDS011;64076;51.466;7.260;2023-04-10T12:27:06;2.50;;;1.70;;
75499;SDS011;64076;51.466;7.260;2023-04-10T12:29:43;2.13;;;1.70;;
75499;SDS011;64076;51.466;7.260;2023-04-10T12:32:10;2.00;;;1.60;;
75499;SDS011;64076;51.466;7.260;2023-04-10T12:34:35;2.10;;;1.50;;
75499;SDS011;64076;51.466;7.260;2023-04-10T12:37:01;2.30;;;1.70;;
75499;SDS011;64076;51.466;7.260;2023-04-10T12:39:27;2.10;;;1.50;;
75499;SDS011;64076;51.466;7.260;2023-04-10T12:41:53;2.10;;;1.60;;
75499;SDS011;64076;51.466;7.260;2023-04-10T12:44:49;2.13;;;1.48;;
75499;SDS011;64076;51.466;7.260;2023-04-10T12:47:19;2.15;;;1.60;;
75499;SDS011;64076;51.466;7.260;2023-04-10T12:52:30;2.00;;;1.50;;
75499;SDS011;64076;51.466;7.260;2023-04-10T12:55:09;2.20;;;1.58;;
75499;SDS011;64076;51.466;7.260;2023-04-10T12:57:46;2.13;;;1.40;;
75499;SDS011;64076;51.466;7.260;2023-04-10T13:00:13;2.30;;;1.40;;
75499;SDS011;64076;51.466;7.260;2023-04-10T13:02:41;2.30;;;1.65;;
75499;SDS011;64076;51.466;7.260;2023-04-10T13:05:07;2.17;;;1.52;;
75499;SDS011;64076;51.466;7.260;2023-04-10T13:07:33;2.20;;;1.50;;
75499;SDS011;64076;51.466;7.260;2023-04-10T13:10:00;2.23;;;1.30;;
75499;SDS011;64076;51.466;7.260;2023-04-10T13:12:26;1.95;;;1.55;;
75499;SDS011;64076;51.466;7.260;2023-04-10T13:14:52;1.92;;;1.40;;
75499;SDS011;64076;51.466;7.260;2023-04-10T13:17:19;2.20;;;1.60;;
75499;SDS011;64076;51.466;7.260;2023-04-10T13:19:45;1.98;;;1.40;;
75499;SDS011;64076;51.466;7.260;2023-04-10T13:22:10;1.80;;;1.23;;
75499;SDS011;64076;51.466;7.260;2023-04-10T13:24:36;2.25;;;1.50;;
75499;SDS011;64076;51.466;7.260;2023-04-10T13:27:02;2.10;;;1.40;;
75499;SDS011;64076;51.466;7.260;2023-04-10T13:29:27;1.98;;;1.40;;
75499;SDS011;64076;51.466;7.260;2023-04-10T13:31:53;2.23;;;1.43;;
75499;SDS011;64076;51.466;7.260;2023-04-10T13:34:19;2.00;;;1.30;;
75499;SDS011;64076;51.466;7.260;2023-04-10T13:36:45;1.92;;;1.23;;
75499;SDS011;64076;51.466;7.260;2023-04-10T13:39:10;1.80;;;1.20;;
75499;SDS011;64076;51.466;7.260;2023-04-10T13:41:36;2.03;;;1.33;;
75499;SDS011;64076;51.466;7.260;2023-04-10T13:44:01;1.90;;;1.23;;
75499;SDS011;64076;51.466;7.260;2023-04-10T13:46:27;1.92;;;1.30;;
75499;SDS011;64076;51.466;7.260;2023-04-10T13:48:52;1.90;;;1.13;;
75499;SDS011;64076;51.466;7.260;2023-04-10T13:51:18;1.70;;;1.10;;
75499;SDS011;64076;51.466;7.260;2023-04-10T13:53:43;1.90;;;1.25;;
75499;SDS011;64076;51.466;7.260;2023-04-10T13:56:09;2.13;;;1.40;;
75499;SDS011;64076;51.466;7.260;2023-04-10T13:58:34;2.00;;;1.17;;
75499;SDS011;64076;51.466;7.260;2023-04-10T14:01:00;1.83;;;1.30;;
75499;SDS011;64076;51.466;7.260;2023-04-10T14:03:25;1.90;;;1.37;;
75499;SDS011;64076;51.466;7.260;2023-04-10T14:05:51;1.80;;;1.33;;
75499;SDS011;64076;51.466;7.260;2023-04-10T14:08:17;2.00;;;1.27;;
75499;SDS011;64076;51.466;7.260;2023-04-10T14:10:44;2.13;;;1.40;;
75499;SDS011;64076;51.466;7.260;2023-04-10T14:13:10;1.75;;;1.20;;
75499;SDS011;64076;51.466;7.260;2023-04-10T14:15:36;2.20;;;1.37;;
75499;SDS011;64076;51.466;7.260;2023-04-10T14:18:01;1.95;;;1.45;;
75499;SDS011;64076;51.466;7.260;2023-04-10T14:22:55;2.03;;;1.50;;
75499;SDS011;64076;51.466;7.260;2023-04-10T14:25:24;2.00;;;1.50;;
75499;SDS011;64076;51.466;7.260;2023-04-10T14:27:49;1.58;;;1.13;;
75499;SDS011;64076;51.466;7.260;2023-04-10T14:30:15;1.83;;;1.23;;
75499;SDS011;64076;51.466;7.260;2023-04-10T14:32:40;1.80;;;1.30;;
75499;SDS011;64076;51.466;7.260;2023-04-10T14:35:06;1.97;;;1.33;;
75499;SDS011;64076;51.466;7.260;2023-04-10T14:37:32;1.95;;;1.40;;
75499;SDS011;64076;51.466;7.260;2023-04-10T14:39:57;2.10;;;1.50;;
75499;SDS011;64076;51.466;7.260;2023-04-10T14:42:23;2.08;;;1.50;;
75499;SDS011;64076;51.466;7.260;2023-04-10T14:44:49;2.07;;;1.53;;
75499;SDS011;64076;51.466;7.260;2023-04-10T14:47:14;2.10;;;1.50;;
75499;SDS011;64076;51.466;7.260;2023-04-10T14:49:40;2.10;;;1.60;;
75499;SDS011;64076;51.466;7.260;2023-04-10T14:52:06;2.10;;;1.57;;
75499;SDS011;64076;51.466;7.260;2023-04-10T14:54:31;2.30;;;1.63;;
75499;SDS011;64076;51.466;7.260;2023-04-10T14:56:57;2.20;;;1.53;;
75499;SDS011;64076;51.466;7.260;2023-04-10T14:59:22;1.95;;;1.40;;
75499;SDS011;64076;51.466;7.260;2023-04-10T15:01:48;2.10;;;1.40;;
75499;SDS011;64076;51.466;7.260;2023-04-10T15:04:14;1.83;;;1.30;;
75499;SDS011;64076;51.466;7.260;2023-04-10T15:06:39;2.10;;;1.60;;
75499;SDS011;64076;51.466;7.260;2023-04-10T15:09:05;2.15;;;1.45;;
75499;SDS011;64076;51.466;7.260;2023-04-10T15:11:31;1.83;;;1.40;;
75499;SDS011;64076;51.466;7.260;2023-04-10T15:14:00;1.85;;;1.45;;
75499;SDS011;64076;51.466;7.260;2023-04-10T15:16:26;2.22;;;1.60;;
75499;SDS011;64076;51.466;7.260;2023-04-10T15:18:53;2.10;;;1.60;;